RYS3472 BKPR-LJLJ
Flight info
| Callsign | RYS3472 |
|---|---|
| Flight time | N/A |
| Altitude | 19000 |
| Route | SARAX1D SARAX T217 TETOV/N0455F360 DCT MAVAR DCT KOFER DCT SPL DCT DARZA |
| Aircraft | B38M/M-SDE1FGHILORVWXY/HB1 |
Departure
| Time | N/A |
|---|---|
| Airport | Priština Adem Jashari International Airport (BKPR) |
Arrival
| Time | 2026-04-18 01:05 |
|---|---|
| Airport | Ljubljana Jože Pučnik Airport (LJLJ) |
| Time | Latitude | Longitude | Altitude | Speed | Heading |
|---|---|---|---|---|---|
| 2026-04-18 00:28 | 43.26674 | 16.66246 | 36044 ft | 421 kts | 313° |
| 2026-04-18 00:28 | 43.30568 | 16.60216 | 36041 ft | 422 kts | 313° |
| 2026-04-18 00:29 | 43.34461 | 16.54177 | 36054 ft | 422 kts | 313° |
| 2026-04-18 00:29 | 43.37690 | 16.49159 | 36081 ft | 422 kts | 313° |
| 2026-04-18 00:30 | 43.41574 | 16.43113 | 36068 ft | 421 kts | 313° |
| 2026-04-18 00:30 | 43.45454 | 16.37060 | 36069 ft | 421 kts | 313° |
| 2026-04-18 00:31 | 43.49463 | 16.31213 | 36052 ft | 418 kts | 326° |
| 2026-04-18 00:31 | 43.54596 | 16.27507 | 36049 ft | 418 kts | 335° |
| 2026-04-18 00:32 | 43.59829 | 16.24125 | 36075 ft | 418 kts | 335° |
| 2026-04-18 00:32 | 43.65112 | 16.20782 | 36077 ft | 418 kts | 335° |
| 2026-04-18 00:33 | 43.70399 | 16.17452 | 36088 ft | 418 kts | 336° |
| 2026-04-18 00:33 | 43.75692 | 16.14116 | 36086 ft | 417 kts | 335° |
| 2026-04-18 00:34 | 43.80975 | 16.10778 | 36085 ft | 418 kts | 335° |
| 2026-04-18 00:34 | 43.86271 | 16.07425 | 36086 ft | 417 kts | 336° |
| 2026-04-18 00:35 | 43.91543 | 16.04080 | 36086 ft | 416 kts | 336° |
| 2026-04-18 00:35 | 43.96782 | 16.00750 | 36089 ft | 417 kts | 335° |
| 2026-04-18 00:36 | 44.02062 | 15.97388 | 35874 ft | 417 kts | 335° |
| 2026-04-18 00:36 | 44.04700 | 15.95706 | 35649 ft | 416 kts | 336° |
| 2026-04-18 00:36 | 44.07329 | 15.94027 | 35433 ft | 416 kts | 336° |
| 2026-04-18 00:36 | 44.09963 | 15.92344 | 35215 ft | 416 kts | 336° |
| 2026-04-18 00:37 | 44.12600 | 15.90657 | 35002 ft | 416 kts | 336° |
| 2026-04-18 00:37 | 44.15238 | 15.88968 | 34778 ft | 417 kts | 336° |
| 2026-04-18 00:37 | 44.17878 | 15.87276 | 34556 ft | 417 kts | 336° |
| 2026-04-18 00:37 | 44.20516 | 15.85584 | 34355 ft | 418 kts | 336° |
| 2026-04-18 00:38 | 44.23159 | 15.83886 | 34133 ft | 418 kts | 336° |
| 2026-04-18 00:38 | 44.25794 | 15.82192 | 33861 ft | 419 kts | 336° |
| 2026-04-18 00:38 | 44.28417 | 15.80504 | 33664 ft | 420 kts | 336° |
| 2026-04-18 00:38 | 44.31066 | 15.78803 | 33400 ft | 418 kts | 336° |
| 2026-04-18 00:39 | 44.33707 | 15.77096 | 33148 ft | 418 kts | 336° |
| 2026-04-18 00:39 | 44.36349 | 15.75390 | 32912 ft | 418 kts | 336° |
| 2026-04-18 00:39 | 44.38996 | 15.73684 | 32686 ft | 419 kts | 336° |
| 2026-04-18 00:39 | 44.41658 | 15.72010 | 32440 ft | 419 kts | 336° |
| 2026-04-18 00:40 | 44.44315 | 15.70319 | 32206 ft | 420 kts | 336° |
| 2026-04-18 00:40 | 44.46971 | 15.68607 | 31983 ft | 421 kts | 336° |
| 2026-04-18 00:40 | 44.49626 | 15.66885 | 31762 ft | 421 kts | 336° |
| 2026-04-18 00:40 | 44.52281 | 15.65158 | 31530 ft | 420 kts | 336° |
| 2026-04-18 00:41 | 44.54930 | 15.63435 | 31310 ft | 420 kts | 336° |
| 2026-04-18 00:41 | 44.57591 | 15.61701 | 31065 ft | 421 kts | 336° |
| 2026-04-18 00:41 | 44.60232 | 15.59978 | 30841 ft | 424 kts | 336° |
| 2026-04-18 00:41 | 44.62873 | 15.58253 | 30622 ft | 424 kts | 336° |
| 2026-04-18 00:42 | 44.65560 | 15.56497 | 30397 ft | 424 kts | 336° |
| 2026-04-18 00:42 | 44.68185 | 15.54779 | 30172 ft | 423 kts | 336° |
| 2026-04-18 00:42 | 44.70853 | 15.53032 | 29909 ft | 421 kts | 336° |
| 2026-04-18 00:42 | 44.73457 | 15.51325 | 29658 ft | 419 kts | 336° |
| 2026-04-18 00:43 | 44.76094 | 15.49595 | 29405 ft | 417 kts | 336° |
| 2026-04-18 00:43 | 44.78714 | 15.47874 | 29149 ft | 415 kts | 336° |
| 2026-04-18 00:43 | 44.81394 | 15.46406 | 28879 ft | 412 kts | 346° |
| 2026-04-18 00:43 | 44.84225 | 15.45821 | 28645 ft | 412 kts | 356° |
| 2026-04-18 00:44 | 44.87082 | 15.45593 | 28375 ft | 410 kts | 353° |
| 2026-04-18 00:44 | 44.89918 | 15.45200 | 28159 ft | 409 kts | 354° |
| 2026-04-18 00:44 | 44.92747 | 15.44847 | 27922 ft | 407 kts | 354° |
| 2026-04-18 00:44 | 44.95568 | 15.44517 | 27680 ft | 405 kts | 354° |
| 2026-04-18 00:45 | 44.98361 | 15.44202 | 27233 ft | 400 kts | 354° |
| 2026-04-18 00:45 | 45.01113 | 15.43894 | 26471 ft | 402 kts | 354° |
| 2026-04-18 00:45 | 45.03894 | 15.43584 | 25877 ft | 400 kts | 354° |
| 2026-04-18 00:45 | 45.06662 | 15.43277 | 25316 ft | 397 kts | 354° |
| 2026-04-18 00:46 | 45.07979 | 15.43130 | 25045 ft | 396 kts | 354° |
| 2026-04-18 00:46 | 45.10157 | 15.42887 | 24603 ft | 394 kts | 354° |
| 2026-04-18 00:46 | 45.12888 | 15.42582 | 24052 ft | 392 kts | 354° |
| 2026-04-18 00:46 | 45.15571 | 15.42284 | 23440 ft | 390 kts | 354° |
| 2026-04-18 00:47 | 45.18263 | 15.41984 | 22834 ft | 388 kts | 354° |
| 2026-04-18 00:47 | 45.20947 | 15.41685 | 22264 ft | 384 kts | 354° |
| 2026-04-18 00:47 | 45.23610 | 15.41388 | 21746 ft | 381 kts | 354° |
| 2026-04-18 00:47 | 45.26247 | 15.41093 | 21194 ft | 378 kts | 355° |
| 2026-04-18 00:48 | 45.28865 | 15.40800 | 20684 ft | 376 kts | 355° |
| 2026-04-18 00:48 | 45.31471 | 15.40508 | 20150 ft | 374 kts | 355° |
| 2026-04-18 00:48 | 45.34061 | 15.40218 | 19642 ft | 372 kts | 355° |
| 2026-04-18 00:49 | 45.39141 | 15.39647 | 18664 ft | 368 kts | 355° |
| 2026-04-18 00:49 | 45.41695 | 15.39360 | 18123 ft | 367 kts | 355° |
| 2026-04-18 00:49 | 45.44236 | 15.39073 | 17598 ft | 365 kts | 355° |
| 2026-04-18 00:49 | 45.46758 | 15.38789 | 17108 ft | 362 kts | 355° |
| 2026-04-18 00:50 | 45.49260 | 15.38507 | 16638 ft | 359 kts | 355° |
| 2026-04-18 00:50 | 45.51740 | 15.38227 | 16180 ft | 356 kts | 355° |
| 2026-04-18 00:50 | 45.54185 | 15.37951 | 15735 ft | 353 kts | 355° |
| 2026-04-18 00:50 | 45.56628 | 15.37674 | 15277 ft | 351 kts | 355° |
| 2026-04-18 00:51 | 45.59054 | 15.37400 | 14816 ft | 348 kts | 356° |
| 2026-04-18 00:51 | 45.61468 | 15.37126 | 14386 ft | 346 kts | 356° |
| 2026-04-18 00:51 | 45.63865 | 15.36854 | 13947 ft | 344 kts | 356° |
| 2026-04-18 00:51 | 45.66251 | 15.36583 | 13454 ft | 342 kts | 356° |
| 2026-04-18 00:52 | 45.68616 | 15.36314 | 13021 ft | 339 kts | 356° |
| 2026-04-18 00:52 | 45.70958 | 15.36048 | 12589 ft | 336 kts | 356° |
| 2026-04-18 00:52 | 45.73247 | 15.35787 | 12180 ft | 332 kts | 356° |
| 2026-04-18 00:52 | 45.75524 | 15.35379 | 11750 ft | 330 kts | 345° |
| 2026-04-18 00:53 | 45.77571 | 15.33928 | 11348 ft | 331 kts | 323° |
| 2026-04-18 00:53 | 45.79118 | 15.31528 | 11191 ft | 324 kts | 310° |
| 2026-04-18 00:53 | 45.80463 | 15.28999 | 11051 ft | 311 kts | 310° |
| 2026-04-18 00:53 | 45.81724 | 15.26594 | 10919 ft | 292 kts | 309° |
| 2026-04-18 00:54 | 45.82898 | 15.24330 | 10778 ft | 274 kts | 310° |
| 2026-04-18 00:54 | 45.83984 | 15.22218 | 10648 ft | 258 kts | 310° |
| 2026-04-18 00:54 | 45.85017 | 15.20199 | 10512 ft | 245 kts | 310° |
| 2026-04-18 00:54 | 45.86033 | 15.18208 | 10397 ft | 254 kts | 309° |
| 2026-04-18 00:55 | 45.87098 | 15.16118 | 10300 ft | 262 kts | 310° |
| 2026-04-18 00:55 | 45.88188 | 15.13977 | 10101 ft | 267 kts | 310° |
| 2026-04-18 00:55 | 45.89278 | 15.11830 | 9695 ft | 266 kts | 310° |
| 2026-04-18 00:55 | 45.90371 | 15.09676 | 9305 ft | 267 kts | 310° |
| 2026-04-18 00:56 | 45.91463 | 15.07521 | 8968 ft | 266 kts | 309° |
| 2026-04-18 00:56 | 45.92545 | 15.05386 | 8682 ft | 263 kts | 309° |
| 2026-04-18 00:56 | 45.93616 | 15.03261 | 8404 ft | 262 kts | 309° |
| 2026-04-18 00:56 | 45.94645 | 15.01142 | 8076 ft | 262 kts | 308° |
| 2026-04-18 00:57 | 45.95683 | 14.99000 | 7780 ft | 260 kts | 308° |
| 2026-04-18 00:57 | 45.96716 | 14.96872 | 7503 ft | 258 kts | 308° |
| 2026-04-18 00:57 | 45.97733 | 14.94774 | 7279 ft | 254 kts | 308° |
| 2026-04-18 00:57 | 45.98739 | 14.92700 | 7011 ft | 252 kts | 308° |
| 2026-04-18 00:58 | 45.99744 | 14.90627 | 6701 ft | 251 kts | 308° |
| 2026-04-18 00:58 | 46.00730 | 14.88594 | 6413 ft | 250 kts | 308° |
| 2026-04-18 00:58 | 46.01720 | 14.86550 | 6129 ft | 248 kts | 308° |
| 2026-04-18 00:58 | 46.02684 | 14.84489 | 5850 ft | 248 kts | 306° |
| 2026-04-18 00:59 | 46.03627 | 14.82433 | 5558 ft | 241 kts | 307° |
| 2026-04-18 00:59 | 46.04574 | 14.80494 | 5314 ft | 232 kts | 308° |
| 2026-04-18 00:59 | 46.05495 | 14.78669 | 5205 ft | 220 kts | 309° |
| 2026-04-18 00:59 | 46.06383 | 14.76935 | 5099 ft | 211 kts | 309° |
| 2026-04-18 01:00 | 46.07241 | 14.75265 | 4930 ft | 204 kts | 309° |
| 2026-04-18 01:00 | 46.08082 | 14.73626 | 4768 ft | 203 kts | 309° |
| 2026-04-18 01:00 | 46.08919 | 14.71996 | 4619 ft | 202 kts | 309° |
| 2026-04-18 01:00 | 46.09740 | 14.70397 | 4480 ft | 201 kts | 309° |
| 2026-04-18 01:01 | 46.10566 | 14.68784 | 4341 ft | 200 kts | 309° |
| 2026-04-18 01:01 | 46.11396 | 14.67171 | 4196 ft | 198 kts | 309° |
| 2026-04-18 01:01 | 46.12198 | 14.65607 | 4129 ft | 192 kts | 309° |
| 2026-04-18 01:01 | 46.12987 | 14.64071 | 3950 ft | 189 kts | 309° |
| 2026-04-18 01:02 | 46.13768 | 14.62550 | 3748 ft | 189 kts | 309° |
| 2026-04-18 01:02 | 46.14533 | 14.61056 | 3514 ft | 177 kts | 309° |
| 2026-04-18 01:02 | 46.15226 | 14.59703 | 3299 ft | 161 kts | 309° |
| 2026-04-18 01:02 | 46.15870 | 14.58418 | 3076 ft | 159 kts | 308° |
| 2026-04-18 01:03 | 46.16519 | 14.57115 | 2885 ft | 162 kts | 308° |
| 2026-04-18 01:03 | 46.17197 | 14.55801 | 2700 ft | 163 kts | 310° |
| 2026-04-18 01:03 | 46.17882 | 14.54503 | 2478 ft | 162 kts | 308° |
| 2026-04-18 01:03 | 46.18555 | 14.53199 | 2232 ft | 161 kts | 308° |
| 2026-04-18 01:04 | 46.19218 | 14.51907 | 1993 ft | 159 kts | 306° |
| 2026-04-18 01:04 | 46.19855 | 14.50644 | 1757 ft | 152 kts | 307° |
| 2026-04-18 01:04 | 46.20484 | 14.49445 | 1521 ft | 149 kts | 306° |
| 2026-04-18 01:04 | 46.21097 | 14.48238 | 1358 ft | 148 kts | 307° |
| 2026-04-18 01:05 | 46.21686 | 14.47086 | 1228 ft | 138 kts | 307° |
| 2026-04-18 01:05 | 46.22169 | 14.46148 | 1243 ft | 93 kts | 306° |
| 2026-04-18 01:05 | 46.22410 | 14.45677 | 1255 ft | 24 kts | 306° |
| 2026-04-18 01:05 | 46.22448 | 14.45606 | 1252 ft | 28 kts | 312° |
| 2026-04-18 01:06 | 46.22528 | 14.45490 | 1250 ft | 24 kts | 318° |
| 2026-04-18 01:06 | 46.22668 | 14.45365 | 1259 ft | 22 kts | 339° |
| 2026-04-18 01:06 | 46.22793 | 14.45319 | 1262 ft | 15 kts | 351° |
| 2026-04-18 01:06 | 46.22887 | 14.45359 | 1265 ft | 14 kts | 37° |
| 2026-04-18 01:07 | 46.22909 | 14.45383 | 1261 ft | 3 kts | 37° |
| 2026-04-18 01:07 | 46.22912 | 14.45387 | 1261 ft | 3 kts | 36° |
| 2026-04-18 01:07 | 46.22951 | 14.45401 | 1261 ft | 8 kts | 338° |
| 2026-04-18 01:07 | 46.22990 | 14.45335 | 1267 ft | 10 kts | 306° |
| 2026-04-18 01:08 | 46.23031 | 14.45254 | 1263 ft | 11 kts | 306° |
| 2026-04-18 01:08 | 46.23089 | 14.45181 | 1262 ft | 10 kts | 8° |
| 2026-04-18 01:08 | 46.23122 | 14.45212 | 1266 ft | 3 kts | 36° |
| 2026-04-18 01:08 | 46.23130 | 14.45221 | 1264 ft | 0 kts | 36° |